CheckWX is a tool to help pilots better visualize weather data.  It is not intended as a substitute for an official pre-flight weather briefing.

13:54:46 UTC

KEWN METAR
Coastal Carolina Regional Airport
New Bern, North Carolina, USA
Current

1 hour ago

KEWN 261254Z 19008G20KT 10SM FEW029 22/19 A2977 RMK AO2 SLP080 T02220194
Observed
Apr-26 @ 12:54 UTC
Wind
  • 190° at 8 KTS
  • Gusting to 20 KTS
Visibility
10 SM
Flight Rules
VFR
Cloud Levels
  • Few at 2,900' AGL
Temperature
22°C / 72°F
Dewpoint
19°C / 66°F
Humidity
83%
Altimeter
29.77" Hg
Pressure
1008.12 hPa
Previous

2 hours ago

KEWN 261154Z 17009KT 10SM FEW038 21/19 A2978 RMK AO2 SLP085 T02110194 10211 20178 56012
Observed
Apr-26 @ 11:54 UTC
Wind
  • 170° at 9 KTS
Visibility
10 SM
Flight Rules
VFR
Cloud Levels
  • Few at 3,800' AGL
Temperature
21°C / 70°F
Dewpoint
19°C / 66°F
Humidity
88%
Altimeter
29.78" Hg
Pressure
1008.42 hPa
Previous

3 hours ago

KEWN 261054Z 19007KT 10SM FEW120 21/19 A2979 RMK AO2 SLP088 T02060189
Observed
Apr-26 @ 10:54 UTC
Wind
  • 190° at 7 KTS
Visibility
10 SM
Flight Rules
VFR
Cloud Levels
  • Few at 12,000' AGL
Temperature
21°C / 70°F
Dewpoint
19°C / 66°F
Humidity
88%
Altimeter
29.79" Hg
Pressure
1008.82 hPa